NCAR-RAP Real-Time Weather Data

Output produced by METARs form (23 June 2018  19:26 UTC)
found at http://weather.rap.ucar.edu/surface/
 
RJFR 231900Z VRB01KT 9999 FEW020 20/16 Q1005
RJFR 231800Z 26007KT 9999 FEW020 20/17 Q1005
RJFR 231700Z 28006KT 9999 FEW020 21/17 Q1005
RJFR 231600Z 30005KT 9999 FEW020 21/17 Q1005
RJFR 231500Z 29005KT 9999 FEW015 21/17 Q1005
RJFR 231400Z 28003KT 9999 FEW015 SCT025 21/17 Q1006
RJFR 231300Z 13003KT 060V190 9999 FEW015 SCT/// 22/16 Q1005
RJFR 231200Z 14004KT 100V170 9999 FEW025 BKN030 BKN050 22/17 Q1005
RJFR 231100Z 17004KT 9999 FEW025 BKN045 BKN060 22/15 Q1005
RJFR 231000Z 16004KT 9999 FEW025 BKN030 BKN060 23/15 Q1004
RJFR 230900Z 13003KT 110V190 9999 FEW020 SCT035 BKN060 23/16 Q1004
RJFR 230800Z 12004KT 020V160 9999 FEW020 SCT035 BKN060 23/16 Q1003
RJFR 230700Z 14004KT 9999 FEW020 BKN050 23/15 Q1004
RJFR 230600Z 15005KT 9999 FEW020 BKN050 BKN/// 23/15 Q1004
RJFR 230500Z 16008KT 9999 FEW020 SCT035 BKN060 22/15 Q1004
RJFR 230400Z 16007KT 9999 FEW020 SCT035 BKN060 22/16 Q1004
RJFR 230300Z 14006KT 9999 FEW020 SCT050 BKN080 22/14 Q1005
RJFR 230200Z 12003KT 050V170 9999 -RA FEW020 SCT060 BKN080 23/15 Q1005
RJFR 230100Z 16004KT 080V210 9999 -RA FEW030 SCT060 BKN100 22/14 Q1005
RJFR 230000Z 18005KT 9999 -RA FEW030 SCT060 BKN120 22/14 Q1005
RJFR 222300Z 14008KT 9999 -RA FEW040 SCT080 BKN110 22/15 Q1004
RJFR 222200Z 14006KT 9999 -RA FEW030 SCT090 BKN120 22/14 Q1005
RJFR 222100Z 14010KT 9999 -RA NSC 22/14 Q1005
RJFR 222000Z 15016KT 9999 -RA FEW030 SCT100 BKN140 22/14 Q1005
RJFR 221940Z 15021KT 9999 FEW025 BKN140 22/14 Q1005 RMK 1CU025 7AC140 A2968
RJFR 221900Z 13011KT 9999 FEW025 BKN160 23/16 Q1004
RJFR 221800Z 07013KT 9999 FEW025 BKN170 23/20 Q1005
RJFR 221700Z VRB06KT 9999 FEW025 BKN180 23/20 Q1005
RJFR 221600Z VRB06KT 9999 FEW015 BKN180 BKN/// 23/20 Q1005
RJFR 221500Z 08014KT 9999 FEW010 BKN180 BKN/// 23/20 Q1006
RJFR 221400Z 08012KT 9999 FEW010 SCT140 BKN/// 23/20 Q1007
RJFR 221300Z 07010KT 9999 FEW030 SCT140 BKN180 23/20 Q1008
RJFR 221200Z 07011KT CAVOK 24/18 Q1007
RJFR 221100Z 08007KT 350V140 CAVOK 24/17 Q1007
RJFR 221000Z 09006KT 360V180 CAVOK 24/19 Q1007
RJFR 220900Z 05003KT CAVOK 25/19 Q1007
RJFR 220800Z VRB04KT CAVOK 25/19 Q1007
RJFR 220700Z 08006KT CAVOK 25/19 Q1007
RJFR 220600Z 09006KT 020V120 9999 FEW030 BKN/// 26/19 Q1007
RJFR 220500Z 11005KT 040V180 9999 FEW020 BKN/// 25/19 Q1007
RJFR 220400Z VRB03KT 9999 FEW020 BKN/// 24/18 Q1008
RJFR 220300Z 08004KT 360V110 9999 FEW020 BKN/// 24/19 Q1009
RJFR 220200Z 08004KT 360V150 9999 FEW015 BKN/// 23/19 Q1009
RJFR 220100Z 08003KT 350V160 8000 FEW015 BKN/// 23/18 Q1010
RJFR 220000Z 07003KT 040V120 7000 FEW006 SCT015 BKN/// 22/18 Q1009
RJFR 212343Z VRB03KT 7000 FEW005 SCT007 BKN/// 22/18 Q1010 RMK 1ST005 4ST007 A2982
RJFR 212300Z 12003KT 070V170 6000 FEW005 BKN007 22/19 Q1010
RJFR 212200Z VRB02KT 6000 FEW005 BKN008 BKN/// 21/19 Q1010
RJFR 212105Z 13003KT 090V210 6000 FEW003 SCT005 BKN006 21/19 Q1009 RMK 1ST003 3ST005 5ST006 A2981
RJFR 212100Z 13003KT 100V180 6000 FEW003 SCT005 BKN/// 21/19 Q1009
RJFR 212000Z 08004KT 040V150 7000 FEW005 BKN010 21/19 Q1009
RJFR 211900Z VRB01KT 7000 FEW006 SCT010 21/19 Q1008
RJFR 211800Z 35003KT 7000 FEW006 SCT010 21/18 Q1008
RJFR 211700Z 36003KT 6000 FEW030 21/19 Q1008
RJFR 211600Z 01001KT 9999 FEW030 22/19 Q1008
RJFR 211500Z 36006KT 9999 FEW030 21/18 Q1009
RJFR 211400Z 31005KT 9999 FEW030 22/17 Q1008
RJFR 211300Z 24007KT 200V260 9999 FEW030 23/18 Q1008
RJFR 211200Z 26003KT 9999 FEW030 24/17 Q1007
RJFR 211100Z 29010KT 9999 FEW030 25/17 Q1007
RJFR 211000Z 29007KT 9999 FEW040 BKN/// 26/16 Q1006
RJFR 210900Z 31007KT 9999 FEW040 BKN/// 27/16 Q1006
RJFR 210800Z 32011KT 9999 FEW040 SCT/// 27/18 Q1005